Time;durP1;ratioP1;P1;durP2;ratioP2;P2;SDS_P1;SDS_P2;PMS_P1;PMS_P2;Temp;Humidity;BMP_temperature;BMP_pressure;BME280_temperature;BME280_humidity;BME280_pressure;Samples;Min_cycle;Max_cycle;Signal;HPM_P1;HPM_P2
2021/07/24 00:00:05;;;;;;;;;;;13.60;99.90;;;;;;5074562;28;20251;-66
2021/07/24 00:02:32;;;;;;;;;;;13.70;99.90;;;;;;5073844;28;19908;-65
2021/07/24 00:04:58;;;;;;;;;;;13.70;99.90;;;;;;5074788;28;20381;-66
2021/07/24 00:07:25;;;;;;;;;;;13.70;99.90;;;;;;5074911;28;20003;-66
2021/07/24 00:09:52;;;;;;;;;;;13.70;99.90;;;;;;5074733;28;19944;-66
2021/07/24 00:12:18;;;;;;;;;;;13.80;99.90;;;;;;5074787;28;19916;-66
2021/07/24 00:14:45;;;;;;;;;;;13.90;99.90;;;;;;5074847;28;20465;-66
2021/07/24 00:17:11;;;;;;;;;;;14.00;99.90;;;;;;5074734;28;19909;-65
2021/07/24 00:19:38;;;;;;;;;;;14.10;99.90;;;;;;5074376;28;19916;-65
2021/07/24 00:22:05;;;;;;;;;;;14.20;99.90;;;;;;5074788;28;19913;-66
2021/07/24 00:24:31;;;;;;;;;;;14.30;99.90;;;;;;5074630;28;19909;-65
2021/07/24 00:26:58;;;;;;;;;;;14.40;99.90;;;;;;5074534;28;19913;-65
2021/07/24 00:29:25;;;;;;;;;;;14.50;99.90;;;;;;5074447;28;19908;-66
2021/07/24 00:31:51;;;;;;;;;;;14.60;99.90;;;;;;5074292;28;19908;-65
2021/07/24 00:34:19;;;;;;;;;;;14.70;99.90;;;;;;5074838;28;19912;-65
2021/07/24 00:36:46;;;;;;;;;;;14.90;99.90;;;;;;5074931;28;20320;-65
2021/07/24 00:39:13;;;;;;;;;;;15.00;99.90;;;;;;5078032;28;19959;-66
2021/07/24 00:41:42;;;;;;;;;;;15.00;99.90;;;;;;5080982;28;19909;-66
2021/07/24 00:44:09;;;;;;;;;;;15.10;99.90;;;;;;5074159;28;19960;-66
2021/07/24 00:46:36;;;;;;;;;;;15.10;99.90;;;;;;5074251;28;19908;-66
2021/07/24 00:49:03;;;;;;;;;;;15.10;99.70;;;;;;5074140;28;20359;-66
2021/07/24 00:51:34;;;;;;;;;;;15.10;99.90;;;;;;5074184;28;19908;-65
2021/07/24 00:54:04;;;;;;;;;;;15.10;99.70;;;;;;5074479;28;19986;-65
2021/07/24 00:56:32;;;;;;;;;;;15.20;99.90;;;;;;5075063;28;19909;-65
2021/07/24 00:58:58;;;;;;;;;;;15.30;98.90;;;;;;5074039;28;19977;-65
2021/07/24 01:01:25;;;;;;;;;;;15.30;99.20;;;;;;5074132;28;19962;-65
2021/07/24 01:03:52;;;;;;;;;;;15.40;99.10;;;;;;5073975;28;19924;-65
2021/07/24 01:06:19;;;;;;;;;;;15.50;98.90;;;;;;5073998;28;19908;-65
2021/07/24 01:08:46;;;;;;;;;;;15.50;98.10;;;;;;5074064;28;19955;-66
2021/07/24 01:11:13;;;;;;;;;;;15.70;97.70;;;;;;5106397;28;19913;-65
2021/07/24 01:13:40;;;;;;;;;;;16.10;97.60;;;;;;5073596;28;19954;-66
2021/07/24 01:16:07;;;;;;;;;;;17.00;95.80;;;;;;5073665;28;19961;-65
2021/07/24 01:18:34;;;;;;;;;;;17.40;94.90;;;;;;5073682;28;19920;-66
2021/07/24 01:21:03;;;;;;;;;;;17.50;94.60;;;;;;5073683;28;20470;-66
2021/07/24 01:23:30;;;;;;;;;;;17.60;93.90;;;;;;5073459;28;19908;-66
2021/07/24 01:25:56;;;;;;;;;;;17.30;93.70;;;;;;5073757;28;20063;-65
2021/07/24 01:28:24;;;;;;;;;;;17.40;94.20;;;;;;5073518;28;19916;-65
2021/07/24 01:30:51;;;;;;;;;;;17.20;93.60;;;;;;5073390;28;19916;-65
2021/07/24 01:33:21;;;;;;;;;;;17.10;94.00;;;;;;5073156;28;19967;-65
2021/07/24 01:35:48;;;;;;;;;;;17.00;93.80;;;;;;5072946;28;19931;-66
2021/07/24 01:38:15;;;;;;;;;;;16.90;93.60;;;;;;5073030;28;19912;-66
2021/07/24 01:40:47;;;;;;;;;;;16.70;93.60;;;;;;5073183;28;19919;-67
2021/07/24 01:43:14;;;;;;;;;;;16.70;94.40;;;;;;5071815;28;19925;-66
2021/07/24 01:45:41;;;;;;;;;;;16.60;93.00;;;;;;5073066;28;20287;-66
2021/07/24 01:48:13;;;;;;;;;;;16.40;93.00;;;;;;5105362;28;19924;-67
2021/07/24 01:53:31;;;;;;;;;;;16.30;93.30;;;;;;5073181;28;19922;-66
2021/07/24 01:56:00;;;;;;;;;;;16.30;93.70;;;;;;5073042;28;20439;-66
2021/07/24 01:58:31;;;;;;;;;;;16.30;92.50;;;;;;5072892;28;19916;-65
2021/07/24 02:00:59;;;;;;;;;;;16.40;93.20;;;;;;5072672;28;19913;-66
2021/07/24 02:03:30;;;;;;;;;;;16.50;93.00;;;;;;5072769;28;19912;-66
2021/07/24 02:05:56;;;;;;;;;;;16.40;92.60;;;;;;5072588;28;19995;-66
2021/07/24 02:08:24;;;;;;;;;;;16.40;93.00;;;;;;5072222;28;19970;-66
2021/07/24 02:10:51;;;;;;;;;;;16.60;91.80;;;;;;5072667;28;20267;-66
2021/07/24 02:13:19;;;;;;;;;;;16.40;92.30;;;;;;5072654;28;19987;-66
2021/07/24 02:15:46;;;;;;;;;;;16.40;92.40;;;;;;5072332;28;19960;-66
2021/07/24 02:18:16;;;;;;;;;;;16.40;92.50;;;;;;5072727;28;19999;-66
2021/07/24 02:20:45;;;;;;;;;;;16.50;92.70;;;;;;5072594;28;20383;-67
2021/07/24 02:23:12;;;;;;;;;;;16.50;91.20;;;;;;5072476;28;19909;-67
2021/07/24 02:25:38;;;;;;;;;;;16.50;91.50;;;;;;5072222;28;19943;-67
2021/07/24 02:28:05;;;;;;;;;;;16.40;91.50;;;;;;5072786;28;19914;-66
2021/07/24 02:30:32;;;;;;;;;;;16.40;90.90;;;;;;5072673;28;20247;-65
2021/07/24 02:32:58;;;;;;;;;;;16.40;91.40;;;;;;5073441;28;19913;-65
2021/07/24 02:35:25;;;;;;;;;;;16.60;91.70;;;;;;5072566;28;20011;-65
2021/07/24 02:37:52;;;;;;;;;;;16.60;91.70;;;;;;5072320;28;19908;-66
2021/07/24 02:40:21;;;;;;;;;;;16.60;92.00;;;;;;5072287;28;19963;-66
2021/07/24 02:42:48;;;;;;;;;;;16.70;90.00;;;;;;5072076;28;19957;-66
2021/07/24 02:45:15;;;;;;;;;;;16.70;90.10;;;;;;5072401;28;19981;-65
2021/07/24 02:47:42;;;;;;;;;;;16.90;90.10;;;;;;5072282;28;20304;-66
2021/07/24 02:50:08;;;;;;;;;;;17.00;89.40;;;;;;5072455;28;20003;-66
2021/07/24 02:52:35;;;;;;;;;;;16.80;89.70;;;;;;5072190;28;19916;-65
2021/07/24 02:55:02;;;;;;;;;;;16.70;90.10;;;;;;5072185;28;20355;-65
2021/07/24 02:57:28;;;;;;;;;;;16.60;90.30;;;;;;5072163;28;19912;-65
2021/07/24 02:59:55;;;;;;;;;;;16.60;90.60;;;;;;5071896;28;20279;-66
2021/07/24 03:02:22;;;;;;;;;;;16.60;90.50;;;;;;5072196;28;19915;-65
2021/07/24 03:04:49;;;;;;;;;;;16.60;89.50;;;;;;5072206;28;19908;-66
2021/07/24 03:07:16;;;;;;;;;;;16.50;90.40;;;;;;5072246;28;20337;-65
2021/07/24 03:09:42;;;;;;;;;;;16.40;90.40;;;;;;5072062;28;19932;-67
2021/07/24 03:12:10;;;;;;;;;;;16.30;89.80;;;;;;5071928;28;19962;-64
2021/07/24 03:14:36;;;;;;;;;;;16.40;90.80;;;;;;5071828;28;19909;-66
2021/07/24 03:17:03;;;;;;;;;;;16.30;90.20;;;;;;5071937;28;19962;-66
2021/07/24 03:19:32;;;;;;;;;;;16.30;90.50;;;;;;5072995;28;19944;-66
2021/07/24 03:21:59;;;;;;;;;;;16.30;90.30;;;;;;5076090;28;19947;-65
2021/07/24 03:24:26;;;;;;;;;;;16.30;89.90;;;;;;5075753;28;19908;-66
2021/07/24 03:26:52;;;;;;;;;;;16.50;89.30;;;;;;5075826;28;19908;-66
2021/07/24 03:29:19;;;;;;;;;;;16.60;85.80;;;;;;5075821;28;19917;-66
2021/07/24 03:31:46;;;;;;;;;;;16.50;86.00;;;;;;5075502;28;19915;-66
2021/07/24 03:34:12;;;;;;;;;;;16.40;87.60;;;;;;5075706;28;20347;-66
2021/07/24 03:36:39;;;;;;;;;;;16.60;86.90;;;;;;5075603;28;19909;-66
2021/07/24 03:39:05;;;;;;;;;;;16.60;86.00;;;;;;5075455;28;19939;-67
2021/07/24 03:41:35;;;;;;;;;;;16.70;86.80;;;;;;5075255;28;20374;-66
2021/07/24 03:44:03;;;;;;;;;;;16.70;86.30;;;;;;5075200;28;19924;-66
2021/07/24 03:46:29;;;;;;;;;;;16.70;87.20;;;;;;5075475;28;19954;-66
2021/07/24 03:48:56;;;;;;;;;;;16.70;85.20;;;;;;5075357;28;20065;-66
2021/07/24 03:51:23;;;;;;;;;;;16.70;85.20;;;;;;5107869;28;19945;-66
2021/07/24 03:53:50;;;;;;;;;;;16.60;85.60;;;;;;5075200;28;19912;-66
2021/07/24 03:56:17;;;;;;;;;;;16.80;84.10;;;;;;5075340;28;19912;-66
2021/07/24 03:58:45;;;;;;;;;;;16.60;84.10;;;;;;5075281;28;19912;-66
2021/07/24 04:01:12;;;;;;;;;;;16.60;85.10;;;;;;5074917;28;19915;-66
2021/07/24 04:03:39;;;;;;;;;;;16.50;84.50;;;;;;5074906;28;19917;-66
2021/07/24 04:06:09;;;;;;;;;;;16.50;86.00;;;;;;5075104;28;20244;-66
2021/07/24 04:08:36;;;;;;;;;;;16.60;85.50;;;;;;5075228;28;19908;-66
2021/07/24 04:11:05;;;;;;;;;;;16.60;83.90;;;;;;5076267;28;19955;-66
2021/07/24 04:13:33;;;;;;;;;;;16.50;83.90;;;;;;5074773;28;19912;-65
2021/07/24 04:16:00;;;;;;;;;;;16.50;84.50;;;;;;5074560;28;19920;-67
2021/07/24 04:18:30;;;;;;;;;;;16.50;82.50;;;;;;5074835;28;19912;-65
2021/07/24 04:20:58;;;;;;;;;;;16.40;82.20;;;;;;5074959;28;19913;-65
2021/07/24 04:23:26;;;;;;;;;;;16.40;83.50;;;;;;5074770;28;20329;-66
2021/07/24 04:25:53;;;;;;;;;;;16.50;82.20;;;;;;5074712;28;20255;-66
2021/07/24 04:28:20;;;;;;;;;;;16.50;83.00;;;;;;5074610;28;19909;-65
2021/07/24 04:30:47;;;;;;;;;;;16.50;83.80;;;;;;5074304;28;20385;-65
2021/07/24 04:33:13;;;;;;;;;;;16.40;83.50;;;;;;5074537;28;19908;-66
2021/07/24 04:35:47;;;;;;;;;;;16.40;84.00;;;;;;5074229;28;19955;-66
2021/07/24 04:38:14;;;;;;;;;;;16.40;84.00;;;;;;5074439;28;19909;-65
2021/07/24 04:40:41;;;;;;;;;;;16.40;83.70;;;;;;5074346;28;19966;-65
2021/07/24 04:43:08;;;;;;;;;;;16.50;83.10;;;;;;5074025;28;20363;-65
2021/07/24 04:45:34;;;;;;;;;;;16.50;82.90;;;;;;5073981;28;19920;-66
2021/07/24 04:48:01;;;;;;;;;;;16.50;84.60;;;;;;5074442;28;19943;-66
2021/07/24 04:50:28;;;;;;;;;;;16.50;81.60;;;;;;5074306;28;19919;-65
2021/07/24 04:52:55;;;;;;;;;;;16.50;83.80;;;;;;5074258;28;20266;-65
2021/07/24 04:55:24;;;;;;;;;;;16.50;83.40;;;;;;5074810;28;19909;-65
2021/07/24 04:57:51;;;;;;;;;;;16.40;82.30;;;;;;5074102;28;19912;-65
2021/07/24 05:00:18;;;;;;;;;;;16.40;84.30;;;;;;5072864;28;19920;-66
2021/07/24 05:02:45;;;;;;;;;;;16.40;81.00;;;;;;5074166;28;19908;-65
2021/07/24 05:05:12;;;;;;;;;;;16.30;81.50;;;;;;5074267;28;20382;-65
2021/07/24 05:07:40;;;;;;;;;;;16.30;81.60;;;;;;5073750;28;19909;-65
2021/07/24 05:10:08;;;;;;;;;;;16.30;80.80;;;;;;5074301;28;19962;-65
2021/07/24 05:12:36;;;;;;;;;;;16.40;81.60;;;;;;5074111;28;19909;-65
2021/07/24 05:15:03;;;;;;;;;;;16.50;81.50;;;;;;5073635;28;19955;-66
2021/07/24 05:17:30;;;;;;;;;;;16.40;80.30;;;;;;5073902;28;19953;-66
2021/07/24 05:19:56;;;;;;;;;;;16.40;78.80;;;;;;5073732;28;20329;-66
2021/07/24 05:22:23;;;;;;;;;;;16.30;78.70;;;;;;5073637;28;19948;-66
2021/07/24 05:24:50;;;;;;;;;;;16.20;78.70;;;;;;5073823;28;19927;-67
2021/07/24 05:27:16;;;;;;;;;;;16.20;77.80;;;;;;5073497;28;19930;-67
2021/07/24 05:29:43;;;;;;;;;;;16.20;78.90;;;;;;5072476;28;19909;-67
2021/07/24 05:32:10;;;;;;;;;;;16.10;78.30;;;;;;5073297;28;19932;-66
2021/07/24 05:34:36;;;;;;;;;;;16.00;76.50;;;;;;5073004;28;19908;-67
2021/07/24 05:37:03;;;;;;;;;;;16.00;76.40;;;;;;5072894;28;20010;-67
2021/07/24 05:39:30;;;;;;;;;;;15.90;77.60;;;;;;5073042;28;19916;-67
2021/07/24 05:41:56;;;;;;;;;;;15.90;77.50;;;;;;5072386;28;19917;-67
2021/07/24 05:44:23;;;;;;;;;;;15.90;77.80;;;;;;5072679;28;19920;-66
2021/07/24 05:46:51;;;;;;;;;;;15.80;77.80;;;;;;5106131;28;19920;-66
2021/07/24 05:49:17;;;;;;;;;;;15.80;78.10;;;;;;5073487;28;19919;-65
2021/07/24 05:51:44;;;;;;;;;;;15.80;77.30;;;;;;5074025;28;19916;-68
2021/07/24 05:54:10;;;;;;;;;;;15.70;77.90;;;;;;5073078;28;19954;-66
2021/07/24 05:56:37;;;;;;;;;;;15.70;77.50;;;;;;5072835;28;19984;-66
2021/07/24 05:59:04;;;;;;;;;;;15.60;79.80;;;;;;5072055;28;19955;-66
2021/07/24 06:01:31;;;;;;;;;;;15.60;78.00;;;;;;5071441;28;19909;-66
2021/07/24 06:03:59;;;;;;;;;;;15.60;78.40;;;;;;5072566;28;19985;-66
2021/07/24 06:06:26;;;;;;;;;;;15.50;79.20;;;;;;5072612;28;19946;-65
2021/07/24 06:08:53;;;;;;;;;;;15.50;78.10;;;;;;5072623;28;19984;-66
2021/07/24 06:11:19;;;;;;;;;;;15.40;77.90;;;;;;5072441;28;19909;-66
2021/07/24 06:13:46;;;;;;;;;;;15.50;78.30;;;;;;5072245;28;19999;-66
2021/07/24 06:16:12;;;;;;;;;;;15.40;78.90;;;;;;5072540;28;19916;-66
2021/07/24 06:18:39;;;;;;;;;;;15.30;79.70;;;;;;5072436;28;20015;-66
2021/07/24 06:21:06;;;;;;;;;;;15.30;80.10;;;;;;5072436;28;19908;-64
2021/07/24 06:23:32;;;;;;;;;;;15.30;80.50;;;;;;5071972;28;19962;-65
2021/07/24 06:26:01;;;;;;;;;;;15.30;81.60;;;;;;5072341;28;19909;-66
2021/07/24 06:28:28;;;;;;;;;;;15.30;82.10;;;;;;5071627;28;19948;-65
2021/07/24 06:30:54;;;;;;;;;;;15.20;81.30;;;;;;5072248;28;20314;-66
2021/07/24 06:33:21;;;;;;;;;;;15.20;82.00;;;;;;5072458;28;19909;-65
2021/07/24 06:35:48;;;;;;;;;;;15.20;81.30;;;;;;5072046;28;20305;-65
2021/07/24 06:38:14;;;;;;;;;;;15.10;81.00;;;;;;5072326;28;19916;-66
2021/07/24 06:40:41;;;;;;;;;;;15.00;80.90;;;;;;5072080;28;19966;-65
2021/07/24 06:43:08;;;;;;;;;;;15.00;82.30;;;;;;5071676;28;19920;-65
2021/07/24 06:45:34;;;;;;;;;;;15.00;80.80;;;;;;5071928;28;19908;-65
2021/07/24 06:48:01;;;;;;;;;;;14.90;82.50;;;;;;5072113;28;19954;-66
2021/07/24 06:50:28;;;;;;;;;;;14.90;81.70;;;;;;5072362;28;20086;-65
2021/07/24 06:52:59;;;;;;;;;;;14.80;81.20;;;;;;5072528;28;19921;-65
2021/07/24 06:55:25;;;;;;;;;;;14.80;81.80;;;;;;5076268;28;19915;-65
2021/07/24 06:57:52;;;;;;;;;;;14.80;82.80;;;;;;5075876;28;19916;-65
2021/07/24 07:00:19;;;;;;;;;;;14.70;83.20;;;;;;5075584;28;19920;-65
2021/07/24 07:02:45;;;;;;;;;;;14.70;83.50;;;;;;5076166;28;20003;-65
2021/07/24 07:05:12;;;;;;;;;;;14.60;84.40;;;;;;5076084;28;19981;-66
2021/07/24 07:07:39;;;;;;;;;;;14.60;84.70;;;;;;5075828;28;20011;-66
2021/07/24 07:10:06;;;;;;;;;;;14.60;85.80;;;;;;5076183;28;19951;-67
2021/07/24 07:12:32;;;;;;;;;;;14.50;85.00;;;;;;5076056;28;20377;-67
2021/07/24 07:14:59;;;;;;;;;;;14.40;86.70;;;;;;5075761;28;19908;-66
2021/07/24 07:17:28;;;;;;;;;;;14.40;87.10;;;;;;5076177;28;20019;-65
2021/07/24 07:19:55;;;;;;;;;;;14.30;86.20;;;;;;5075879;28;20283;-66
2021/07/24 07:22:22;;;;;;;;;;;14.30;86.60;;;;;;5075747;28;20003;-67
2021/07/24 07:24:48;;;;;;;;;;;14.30;86.30;;;;;;5076184;28;20313;-67
2021/07/24 07:27:15;;;;;;;;;;;14.30;87.90;;;;;;5076021;28;19927;-65
2021/07/24 07:29:43;;;;;;;;;;;14.30;87.30;;;;;;5075589;28;19915;-68
2021/07/24 07:32:09;;;;;;;;;;;14.30;85.80;;;;;;5075867;28;19916;-66
2021/07/24 07:34:36;;;;;;;;;;;14.20;85.80;;;;;;5075661;28;19916;-66
2021/07/24 07:37:03;;;;;;;;;;;14.10;85.20;;;;;;5075699;28;19909;-64
2021/07/24 07:39:29;;;;;;;;;;;14.10;85.10;;;;;;5075609;28;19916;-64
2021/07/24 07:41:57;;;;;;;;;;;14.10;85.00;;;;;;5075013;28;20260;-64
2021/07/24 07:44:24;;;;;;;;;;;14.00;84.40;;;;;;5075400;28;20003;-65
2021/07/24 07:46:51;;;;;;;;;;;14.00;85.90;;;;;;5075293;28;19909;-65
2021/07/24 07:49:18;;;;;;;;;;;14.00;85.20;;;;;;5075249;28;20423;-65
2021/07/24 07:51:45;;;;;;;;;;;13.90;83.60;;;;;;5075136;28;20317;-65
2021/07/24 07:54:11;;;;;;;;;;;13.90;84.20;;;;;;5075315;28;19909;-65
2021/07/24 07:56:39;;;;;;;;;;;13.80;84.90;;;;;;5075280;28;19912;-64
2021/07/24 07:59:06;;;;;;;;;;;13.80;84.90;;;;;;5075192;28;19962;-66
2021/07/24 08:01:33;;;;;;;;;;;13.80;84.60;;;;;;5074270;28;19909;-65
2021/07/24 08:03:59;;;;;;;;;;;13.70;84.70;;;;;;5074662;28;19916;-65
2021/07/24 08:06:26;;;;;;;;;;;13.80;84.40;;;;;;5074266;28;20370;-64
2021/07/24 08:08:52;;;;;;;;;;;13.70;84.80;;;;;;5075277;28;19909;-64
2021/07/24 08:11:19;;;;;;;;;;;13.70;83.50;;;;;;5075111;28;19908;-66
2021/07/24 08:13:49;;;;;;;;;;;13.70;84.90;;;;;;5074682;28;19916;-66
2021/07/24 08:16:16;;;;;;;;;;;13.60;83.50;;;;;;5075055;28;19916;-65
2021/07/24 08:18:43;;;;;;;;;;;13.60;83.40;;;;;;5074936;28;19917;-65
2021/07/24 08:21:10;;;;;;;;;;;13.60;84.20;;;;;;5074925;28;20247;-65
2021/07/24 08:23:37;;;;;;;;;;;13.60;82.60;;;;;;5094371;28;19912;-65
2021/07/24 08:26:03;;;;;;;;;;;13.60;83.50;;;;;;5093376;28;19977;-65
2021/07/24 08:28:30;;;;;;;;;;;13.60;83.30;;;;;;5094305;28;20355;-65
2021/07/24 08:30:57;;;;;;;;;;;13.60;83.60;;;;;;5094541;28;19912;-66
2021/07/24 08:33:24;;;;;;;;;;;13.60;83.50;;;;;;5095014;28;19912;-65
2021/07/24 08:35:50;;;;;;;;;;;13.60;82.40;;;;;;5094661;28;19912;-64
2021/07/24 08:38:17;;;;;;;;;;;13.60;82.90;;;;;;5094676;28;19961;-65
2021/07/24 08:40:47;;;;;;;;;;;13.60;82.60;;;;;;5094843;28;20042;-66
2021/07/24 08:43:15;;;;;;;;;;;13.60;83.20;;;;;;5094489;28;19938;-65
2021/07/24 08:45:45;;;;;;;;;;;13.60;83.50;;;;;;5094248;28;19912;-66
2021/07/24 08:48:11;;;;;;;;;;;13.60;83.90;;;;;;5094605;28;19908;-65
2021/07/24 08:50:40;;;;;;;;;;;13.60;84.10;;;;;;5094508;28;19919;-65
2021/07/24 08:53:08;;;;;;;;;;;13.60;84.90;;;;;;5093292;28;19908;-66
2021/07/24 08:55:37;;;;;;;;;;;13.50;85.00;;;;;;5094213;28;19912;-66
2021/07/24 08:58:05;;;;;;;;;;;13.50;84.40;;;;;;5094096;28;19908;-66
2021/07/24 09:00:32;;;;;;;;;;;13.40;85.00;;;;;;5094172;28;20255;-65
2021/07/24 09:03:00;;;;;;;;;;;13.40;85.00;;;;;;5094621;28;20018;-65
2021/07/24 09:05:27;;;;;;;;;;;13.50;85.40;;;;;;5094477;28;19908;-66
2021/07/24 09:07:54;;;;;;;;;;;13.40;85.90;;;;;;5094826;28;19908;-65
2021/07/24 09:10:21;;;;;;;;;;;13.40;85.40;;;;;;5094311;28;19912;-66
2021/07/24 09:12:48;;;;;;;;;;;13.40;85.40;;;;;;5093950;28;19935;-65
2021/07/24 09:15:16;;;;;;;;;;;13.40;85.90;;;;;;5093934;28;19998;-65
2021/07/24 09:17:43;;;;;;;;;;;13.30;86.10;;;;;;5093704;28;19909;-65
2021/07/24 09:20:10;;;;;;;;;;;13.30;86.30;;;;;;5093728;28;20450;-65
2021/07/24 09:22:38;;;;;;;;;;;13.30;86.90;;;;;;5093850;28;20268;-65
2021/07/24 09:25:15;;;;;;;;;;;13.30;86.30;;;;;;5093708;28;19948;-65
2021/07/24 09:27:46;;;;;;;;;;;13.20;86.40;;;;;;5093475;28;20335;-65
2021/07/24 09:30:24;;;;;;;;;;;13.30;86.50;;;;;;5093593;28;19978;-65
2021/07/24 09:33:07;;;;;;;;;;;13.20;87.20;;;;;;5093845;28;20377;-66
2021/07/24 09:35:54;;;;;;;;;;;13.10;87.30;;;;;;5093407;28;19914;-65
2021/07/24 09:38:27;;;;;;;;;;;13.10;87.60;;;;;;5093304;28;19954;-65
2021/07/24 09:40:54;;;;;;;;;;;13.00;88.70;;;;;;5093697;28;20371;-66
2021/07/24 09:43:31;;;;;;;;;;;13.00;88.10;;;;;;5093257;28;19990;-64
2021/07/24 09:46:08;;;;;;;;;;;13.00;89.70;;;;;;5093588;28;20020;-66
2021/07/24 09:48:34;;;;;;;;;;;12.90;88.70;;;;;;5093774;28;19993;-66
2021/07/24 09:51:01;;;;;;;;;;;12.80;90.00;;;;;;5093329;28;19950;-66
2021/07/24 09:53:34;;;;;;;;;;;12.80;90.00;;;;;;5093378;28;19941;-65
2021/07/24 09:56:01;;;;;;;;;;;12.80;90.40;;;;;;5093064;28;19909;-65
2021/07/24 09:58:28;;;;;;;;;;;12.70;90.50;;;;;;5093155;28;20406;-64
2021/07/24 10:01:02;;;;;;;;;;;12.70;90.50;;;;;;5093330;28;19980;-64
2021/07/24 10:03:29;;;;;;;;;;;12.60;90.00;;;;;;5093372;28;19912;-65
2021/07/24 10:05:56;;;;;;;;;;;12.60;90.80;;;;;;5093123;28;19912;-65
2021/07/24 10:08:25;;;;;;;;;;;12.50;90.90;;;;;;5093193;28;19996;-65
2021/07/24 10:10:51;;;;;;;;;;;12.60;91.60;;;;;;5092985;28;19912;-64
2021/07/24 10:13:18;;;;;;;;;;;12.60;91.00;;;;;;5092895;28;20282;-65
2021/07/24 10:15:46;;;;;;;;;;;12.50;90.90;;;;;;5092801;28;19908;-65
2021/07/24 10:18:13;;;;;;;;;;;12.50;90.80;;;;;;5092889;28;19912;-65
2021/07/24 10:20:42;;;;;;;;;;;12.50;90.80;;;;;;5092888;28;19985;-65
2021/07/24 10:23:09;;;;;;;;;;;12.50;90.40;;;;;;5092761;28;19914;-66
2021/07/24 10:26:01;;;;;;;;;;;12.50;90.70;;;;;;5092530;28;19919;-66
2021/07/24 10:28:53;;;;;;;;;;;12.50;91.00;;;;;;5068828;28;19916;-66
2021/07/24 10:31:24;;;;;;;;;;;12.50;91.00;;;;;;5092765;28;19908;-66
2021/07/24 10:33:55;;;;;;;;;;;12.50;90.80;;;;;;5092443;28;19908;-66
2021/07/24 10:36:32;;;;;;;;;;;12.60;90.60;;;;;;5073198;28;19962;-67
2021/07/24 10:39:01;;;;;;;;;;;12.60;90.30;;;;;;5072438;28;19920;-65
2021/07/24 10:41:28;;;;;;;;;;;12.60;90.90;;;;;;5072076;28;19944;-67
2021/07/24 10:44:00;;;;;;;;;;;12.70;90.60;;;;;;5073721;28;20371;-65
2021/07/24 10:46:43;;;;;;;;;;;12.60;90.20;;;;;;5072632;28;19915;-65
2021/07/24 10:49:36;;;;;;;;;;;12.60;90.30;;;;;;5072470;28;19909;-65
2021/07/24 10:52:06;;;;;;;;;;;12.60;90.50;;;;;;5063798;28;19908;-66
2021/07/24 10:54:34;;;;;;;;;;;12.60;90.80;;;;;;5072237;28;20375;-66
2021/07/24 10:57:02;;;;;;;;;;;12.60;90.60;;;;;;5071617;28;19908;-68
2021/07/24 10:59:29;;;;;;;;;;;12.60;90.70;;;;;;5092242;28;20720;-66
2021/07/24 11:01:57;;;;;;;;;;;12.60;90.40;;;;;;5092027;28;19971;-66
2021/07/24 11:04:38;;;;;;;;;;;12.50;90.90;;;;;;5092126;28;20008;-66
2021/07/24 11:07:24;;;;;;;;;;;12.50;90.70;;;;;;5092413;28;19998;-65
2021/07/24 11:09:53;;;;;;;;;;;12.50;90.80;;;;;;5092064;28;19973;-66
2021/07/24 11:12:36;;;;;;;;;;;12.50;91.20;;;;;;5092022;28;20259;-66
2021/07/24 11:15:07;;;;;;;;;;;12.50;90.90;;;;;;5092218;28;20004;-65
2021/07/24 11:17:33;;;;;;;;;;;12.50;91.30;;;;;;5091473;28;20332;-64
2021/07/24 11:20:00;;;;;;;;;;;12.50;90.80;;;;;;5092090;28;19920;-63
2021/07/24 11:22:27;;;;;;;;;;;12.50;91.30;;;;;;5092250;28;20355;-67
2021/07/24 11:24:54;;;;;;;;;;;12.50;91.30;;;;;;5092471;28;20006;-66
2021/07/24 11:27:23;;;;;;;;;;;12.50;91.10;;;;;;5092854;28;19936;-66
2021/07/24 11:29:50;;;;;;;;;;;12.50;91.20;;;;;;5092397;28;20255;-65
2021/07/24 11:32:24;;;;;;;;;;;12.50;91.30;;;;;;5092062;28;19909;-66
2021/07/24 11:34:56;;;;;;;;;;;12.40;91.20;;;;;;5092505;28;19909;-67
2021/07/24 11:37:42;;;;;;;;;;;12.40;91.40;;;;;;5092356;28;19985;-66
2021/07/24 11:40:12;;;;;;;;;;;12.50;92.00;;;;;;5094825;28;19916;-66
2021/07/24 11:42:40;;;;;;;;;;;12.50;91.50;;;;;;5096054;28;19912;-65
2021/07/24 11:45:07;;;;;;;;;;;12.50;91.90;;;;;;5096339;28;19980;-66
2021/07/24 11:47:33;;;;;;;;;;;12.50;91.90;;;;;;5095187;28;19908;-64
2021/07/24 11:50:16;;;;;;;;;;;12.50;92.10;;;;;;5095968;28;20449;-65
2021/07/24 11:52:45;;;;;;;;;;;12.50;92.30;;;;;;5096393;28;20388;-65
2021/07/24 11:55:29;;;;;;;;;;;12.50;92.40;;;;;;5095659;28;20392;-65
2021/07/24 11:58:10;;;;;;;;;;;12.50;92.60;;;;;;5095390;28;19908;-66
2021/07/24 12:00:40;;;;;;;;;;;12.50;92.50;;;;;;5095352;28;19916;-66
2021/07/24 12:03:25;;;;;;;;;;;12.50;92.50;;;;;;5094751;28;19943;-66
2021/07/24 12:05:51;;;;;;;;;;;12.50;92.80;;;;;;5092524;28;19962;-66
2021/07/24 12:08:19;;;;;;;;;;;12.50;92.80;;;;;;5093410;28;19912;-65
2021/07/24 12:10:48;;;;;;;;;;;12.50;93.10;;;;;;5093020;28;19915;-67
2021/07/24 12:13:18;;;;;;;;;;;12.60;93.20;;;;;;5093198;28;19922;-66
2021/07/24 12:16:06;;;;;;;;;;;12.60;93.00;;;;;;5093108;28;19911;-66
2021/07/24 12:18:36;;;;;;;;;;;12.60;93.20;;;;;;5092445;28;19908;-65
2021/07/24 12:21:20;;;;;;;;;;;12.70;93.30;;;;;;5094462;28;20285;-65
2021/07/24 12:23:53;;;;;;;;;;;12.70;93.40;;;;;;5092995;28;20558;-65
2021/07/24 12:26:22;;;;;;;;;;;12.70;93.50;;;;;;5092828;28;19970;-65
2021/07/24 12:28:50;;;;;;;;;;;12.60;93.70;;;;;;5093136;28;19977;-67
2021/07/24 12:31:17;;;;;;;;;;;12.60;93.40;;;;;;5092046;28;19912;-65
2021/07/24 12:33:45;;;;;;;;;;;12.60;93.40;;;;;;5092719;28;19919;-65
2021/07/24 12:36:31;;;;;;;;;;;12.60;93.30;;;;;;5092875;28;19914;-66
2021/07/24 12:38:58;;;;;;;;;;;12.70;93.40;;;;;;5091352;28;20333;-65
2021/07/24 12:41:32;;;;;;;;;;;12.70;93.50;;;;;;5092815;28;20385;-66
2021/07/24 12:44:03;;;;;;;;;;;12.70;93.50;;;;;;5092292;28;19928;-65
2021/07/24 12:46:29;;;;;;;;;;;12.70;93.20;;;;;;5091848;28;19912;-65
2021/07/24 12:48:59;;;;;;;;;;;12.70;93.70;;;;;;5092259;28;19974;-66
2021/07/24 12:51:34;;;;;;;;;;;12.70;93.50;;;;;;5092571;28;19952;-65
2021/07/24 12:54:13;;;;;;;;;;;12.70;93.50;;;;;;5092580;28;19962;-66
2021/07/24 12:56:45;;;;;;;;;;;12.70;93.50;;;;;;5091864;28;19969;-65
2021/07/24 12:59:18;;;;;;;;;;;12.70;93.70;;;;;;5092215;28;19923;-65
2021/07/24 13:01:48;;;;;;;;;;;12.70;93.70;;;;;;5091321;28;19912;-65
2021/07/24 13:04:18;;;;;;;;;;;12.70;93.70;;;;;;5092156;28;19943;-65
2021/07/24 13:06:45;;;;;;;;;;;12.70;93.70;;;;;;5092056;28;19974;-65
2021/07/24 13:09:12;;;;;;;;;;;12.70;93.70;;;;;;5091805;28;19912;-65
2021/07/24 13:11:39;;;;;;;;;;;12.80;93.80;;;;;;5081926;28;20081;-65
2021/07/24 13:14:05;;;;;;;;;;;12.80;94.00;;;;;;5071630;28;19958;-66
2021/07/24 13:16:34;;;;;;;;;;;12.80;93.90;;;;;;5071810;28;20547;-66
2021/07/24 13:19:01;;;;;;;;;;;12.80;94.00;;;;;;5071691;28;19912;-67
2021/07/24 13:21:28;;;;;;;;;;;12.90;93.90;;;;;;5071775;28;19915;-66
2021/07/24 13:23:57;;;;;;;;;;;12.90;93.90;;;;;;5071282;28;19916;-67
2021/07/24 13:29:08;;;;;;;;;;;12.90;94.10;;;;;;5071928;28;19939;-66
2021/07/24 13:31:35;;;;;;;;;;;12.90;94.00;;;;;;5071828;28;19909;-65
2021/07/24 13:34:02;;;;;;;;;;;12.90;94.20;;;;;;5072032;27;19909;-66
2021/07/24 13:36:28;;;;;;;;;;;12.90;94.10;;;;;;5071194;28;19950;-66
2021/07/24 13:38:55;;;;;;;;;;;12.90;94.50;;;;;;5071616;28;19912;-66
2021/07/24 13:41:22;;;;;;;;;;;12.90;94.80;;;;;;5071448;28;20378;-66
2021/07/24 13:43:50;;;;;;;;;;;12.90;94.60;;;;;;5071160;28;19931;-66
2021/07/24 13:46:18;;;;;;;;;;;12.90;94.80;;;;;;5071348;28;20329;-66
2021/07/24 13:48:45;;;;;;;;;;;12.90;94.70;;;;;;5071034;27;19912;-66
2021/07/24 13:51:11;;;;;;;;;;;12.90;95.10;;;;;;5071274;28;20259;-65
2021/07/24 13:53:41;;;;;;;;;;;12.90;95.20;;;;;;5073083;28;20007;-67
2021/07/24 13:56:16;;;;;;;;;;;12.90;95.20;;;;;;5070986;28;19916;-66
2021/07/24 13:58:44;;;;;;;;;;;12.90;95.30;;;;;;5071647;28;19916;-65
2021/07/24 14:01:11;;;;;;;;;;;12.90;95.30;;;;;;5071394;28;19908;-66
2021/07/24 14:03:38;;;;;;;;;;;12.90;95.30;;;;;;5070078;28;20012;-65
2021/07/24 14:06:04;;;;;;;;;;;12.90;95.50;;;;;;5070435;28;19935;-65
2021/07/24 14:08:31;;;;;;;;;;;12.90;95.20;;;;;;5070043;28;20309;-65
2021/07/24 14:10:58;;;;;;;;;;;12.90;95.30;;;;;;5070338;28;19912;-65
2021/07/24 14:13:24;;;;;;;;;;;12.90;95.50;;;;;;5070499;28;20263;-65
2021/07/24 14:15:51;;;;;;;;;;;12.90;95.50;;;;;;5069886;28;19912;-65
2021/07/24 14:18:18;;;;;;;;;;;12.90;95.50;;;;;;5069945;28;19913;-65
2021/07/24 14:20:47;;;;;;;;;;;12.90;95.40;;;;;;5070452;28;19917;-65
2021/07/24 14:23:13;;;;;;;;;;;13.00;95.50;;;;;;5070479;28;19912;-66
2021/07/24 14:25:41;;;;;;;;;;;12.90;95.60;;;;;;5072423;28;19912;-65
2021/07/24 14:28:07;;;;;;;;;;;12.90;95.60;;;;;;5072036;28;20279;-66